Time;durP1;ratioP1;P1;durP2;ratioP2;P2;SDS_P1;SDS_P2;PMS_P1;PMS_P2;Temp;Humidity;BMP_temperature;BMP_pressure;BME280_temperature;BME280_humidity;BME280_pressure;Samples;Min_cycle;Max_cycle;Signal;HPM_P1;HPM_P2
2022/01/21 00:00:56;;;;;;;9.55;1.55;;;3.00;99.90;;;;;;5067645;28;20131;-77
2022/01/21 00:03:22;;;;;;;;;;;3.10;99.90;;;;;;5061925;28;20095;-77
2022/01/21 00:05:47;;;;;;;13.35;2.22;;;3.20;99.90;;;;;;5051352;28;19920;-77
2022/01/21 00:08:13;;;;;;;17.23;2.25;;;3.20;99.90;;;;;;5068706;28;20476;-77
2022/01/21 00:10:39;;;;;;;13.18;1.80;;;3.20;99.90;;;;;;5055242;28;20055;-77
2022/01/21 00:13:14;;;;;;;12.65;2.15;;;3.30;99.90;;;;;;5065579;28;20063;-77
2022/01/21 00:15:40;;;;;;;10.85;1.63;;;3.30;99.90;;;;;;5041497;28;20094;-77
2022/01/21 00:18:08;;;;;;;15.90;2.08;;;3.30;99.90;;;;;;5066446;28;20041;-77
2022/01/21 00:31:44;;;;;;;16.00;1.77;;;3.10;99.90;;;;;;5067266;28;20044;-76
2022/01/21 00:34:09;;;;;;;10.77;1.52;;;3.00;99.90;;;;;;5062912;28;20036;-76
2022/01/21 00:36:36;;;;;;;7.85;1.70;;;2.90;99.90;;;;;;5055020;28;20045;-77
2022/01/21 00:39:03;;;;;;;9.82;1.65;;;2.80;99.90;;;;;;5047838;28;20471;-78
2022/01/21 00:41:32;;;;;;;10.63;1.77;;;2.70;99.90;;;;;;5070432;28;20078;-78
2022/01/21 00:43:58;;;;;;;9.52;1.75;;;2.60;99.90;;;;;;5054842;28;20169;-78
2022/01/21 00:46:24;;;;;;;11.00;1.30;;;2.60;99.90;;;;;;5056254;28;20091;-78
2022/01/21 00:48:49;;;;;;;6.38;1.33;;;2.50;99.90;;;;;;5050450;28;20514;-78
2022/01/21 00:51:15;;;;;;;10.60;1.50;;;2.50;99.90;;;;;;5047773;28;20056;-78
2022/01/21 00:53:41;;;;;;;7.75;1.50;;;2.40;99.90;;;;;;5056774;28;20291;-78
2022/01/21 00:56:07;;;;;;;8.15;1.13;;;2.40;99.90;;;;;;5054238;28;20518;-78
2022/01/21 00:58:32;;;;;;;10.75;1.58;;;2.30;99.90;;;;;;5053480;28;20094;-77
2022/01/21 01:00:58;;;;;;;3.88;1.00;;;2.20;99.90;;;;;;5068605;28;20045;-77
2022/01/21 01:03:24;;;;;;;8.80;1.60;;;2.20;99.90;;;;;;5072333;28;20075;-77
2022/01/21 01:05:51;;;;;;;7.38;1.30;;;2.20;99.90;;;;;;5053121;28;20048;-78
2022/01/21 01:08:18;;;;;;;12.07;1.00;;;2.20;99.90;;;;;;5038640;28;20048;-78
2022/01/21 01:21:43;;;;;;;8.43;1.58;;;2.30;99.90;;;;;;5051019;28;20412;-78
2022/01/21 01:29:24;;;;;;;10.77;1.40;;;2.40;99.90;;;;;;5056039;28;20537;-77
2022/01/21 01:31:51;;;;;;;6.03;1.23;;;2.50;99.90;;;;;;5049200;28;20393;-78
2022/01/21 01:34:17;;;;;;;6.60;2.15;;;2.50;99.90;;;;;;5056370;28;20124;-77
2022/01/21 01:36:45;;;;;;;5.88;1.02;;;2.50;99.90;;;;;;5072068;28;20044;-78
2022/01/21 01:42:15;;;;;;;6.45;1.20;;;2.60;99.90;;;;;;5056908;28;20094;-78
2022/01/21 01:49:55;;;;;;;8.90;1.30;;;2.40;99.90;;;;;;5068463;28;20063;-80
2022/01/21 01:52:21;;;;;;;5.68;0.98;;;2.40;99.90;;;;;;5053349;28;20044;-79
2022/01/21 01:54:52;;;;;;;3.92;0.90;;;2.50;99.90;;;;;;5039106;28;20037;-80
2022/01/21 01:57:18;;;;;;;2.78;0.52;;;2.50;99.90;;;;;;5069163;28;20041;-80
2022/01/21 01:59:44;;;;;;;3.70;0.50;;;2.60;99.90;;;;;;5075865;28;20036;-80
2022/01/21 02:02:13;;;;;;;2.45;0.40;;;2.80;99.90;;;;;;5049872;28;20032;-80
2022/01/21 02:04:40;;;;;;;5.28;0.88;;;2.90;99.90;;;;;;5056729;28;20051;-80
2022/01/21 02:07:06;;;;;;;6.50;1.27;;;3.00;99.90;;;;;;5064669;28;20100;-84
2022/01/21 02:09:32;;;;;;;6.07;0.98;;;3.00;99.90;;;;;;5055418;28;20128;-81
2022/01/21 02:11:59;;;;;;;4.68;0.85;;;2.90;99.90;;;;;;5072778;28;20090;-79
2022/01/21 02:14:29;;;;;;;6.28;1.00;;;2.90;99.90;;;;;;5089726;28;20123;-80
2022/01/21 02:22:15;;;;;;;6.85;1.20;;;2.60;99.90;;;;;;5096372;28;20048;-80
2022/01/21 02:24:54;;;;;;;5.40;0.90;;;2.70;99.90;;;;;;5056161;28;20110;-80
2022/01/21 02:27:21;;;;;;;5.10;0.77;;;2.60;99.90;;;;;;5054453;28;20036;-80
2022/01/21 02:29:52;;;;;;;6.10;1.13;;;2.60;99.90;;;;;;5069555;28;20392;-80
2022/01/21 02:32:19;;;;;;;5.05;0.80;;;2.50;99.90;;;;;;5064341;28;20041;-79
2022/01/21 02:34:46;;;;;;;7.68;1.13;;;2.50;99.90;;;;;;5055063;28;20325;-80
2022/01/21 02:37:14;;;;;;;2.95;0.80;;;2.40;99.90;;;;;;5065827;28;20033;-80
2022/01/21 02:39:40;;;;;;;5.97;1.02;;;2.40;99.90;;;;;;5064085;28;20077;-80
2022/01/21 02:42:06;;;;;;;3.50;0.55;;;2.40;99.90;;;;;;5071716;28;20071;-80
2022/01/21 02:44:32;;;;;;;4.43;0.73;;;2.40;99.90;;;;;;5055482;28;20047;-79
2022/01/21 02:47:01;;;;;;;5.55;1.10;;;2.50;99.90;;;;;;5074290;28;20135;-79
2022/01/21 02:49:27;;;;;;;9.93;1.45;;;2.80;99.90;;;;;;5069229;28;20093;-79
2022/01/21 02:51:55;;;;;;;4.15;0.65;;;2.70;99.90;;;;;;5070274;28;20040;-80
2022/01/21 02:54:21;;;;;;;3.35;0.82;;;2.80;99.90;;;;;;5069002;28;20045;-79
2022/01/21 02:56:47;;;;;;;3.55;0.93;;;2.70;99.90;;;;;;5053118;28;20189;-80
2022/01/21 02:59:13;;;;;;;4.55;0.73;;;2.70;99.90;;;;;;5062766;28;20092;-79
2022/01/21 03:01:41;;;;;;;3.15;0.60;;;2.70;99.90;;;;;;5063493;28;20174;-79
2022/01/21 03:04:09;;;;;;;4.03;0.80;;;2.70;99.90;;;;;;5053117;28;20375;-77
2022/01/21 03:06:37;;;;;;;4.03;1.05;;;2.70;99.90;;;;;;5051059;28;20072;-76
2022/01/21 03:09:04;;;;;;;2.92;0.73;;;2.70;99.90;;;;;;5069726;28;20041;-76
2022/01/21 03:11:30;;;;;;;4.30;0.73;;;2.60;99.90;;;;;;5052084;28;20037;-77
2022/01/21 03:13:56;;;;;;;5.85;0.70;;;2.50;99.90;;;;;;5053483;28;20380;-76
2022/01/21 03:16:22;;;;;;;6.20;0.80;;;2.50;99.90;;;;;;5058413;28;20040;-76
2022/01/21 03:18:48;;;;;;;;;;;2.50;99.90;;;;;;5052535;28;20048;-76
2022/01/21 03:21:17;;;;;;;5.40;0.77;;;2.40;99.90;;;;;;5051131;28;19923;-77
2022/01/21 03:23:47;;;;;;;4.05;0.55;;;2.50;99.90;;;;;;5069242;28;20037;-78
2022/01/21 03:26:24;;;;;;;2.58;0.70;;;2.40;99.90;;;;;;5033019;28;20044;-76
2022/01/21 03:28:56;;;;;;;3.90;0.40;;;2.40;99.90;;;;;;5091189;28;20048;-76
2022/01/21 03:31:22;;;;;;;1.92;0.40;;;2.30;99.90;;;;;;5062995;28;20507;-76
2022/01/21 03:33:48;;;;;;;3.47;0.80;;;2.30;99.90;;;;;;5035557;28;20055;-76
2022/01/21 03:36:14;;;;;;;2.10;0.52;;;2.20;99.90;;;;;;5070676;28;20048;-76
2022/01/21 03:38:40;;;;;;;4.28;0.65;;;2.20;99.90;;;;;;5036779;28;20032;-77
2022/01/21 03:41:06;;;;;;;4.93;0.70;;;2.20;99.90;;;;;;5066165;28;20032;-77
2022/01/21 03:43:33;;;;;;;12.23;2.28;;;2.10;99.90;;;;;;5069128;28;20044;-77
2022/01/21 03:45:59;;;;;;;7.35;0.75;;;2.10;99.90;;;;;;5035082;28;20488;-77
2022/01/21 03:48:25;;;;;;;4.03;0.80;;;2.10;99.90;;;;;;5065201;28;20127;-77
2022/01/21 03:50:51;;;;;;;5.45;0.80;;;2.00;99.90;;;;;;5049567;28;20400;-76
2022/01/21 03:53:17;;;;;;;4.80;0.65;;;2.00;99.90;;;;;;5067053;28;20040;-77
2022/01/21 03:55:43;;;;;;;3.97;0.60;;;2.00;99.90;;;;;;5046107;28;20087;-77
2022/01/21 03:58:10;;;;;;;3.28;0.75;;;1.90;99.90;;;;;;5056974;28;20044;-77
2022/01/21 04:00:43;;;;;;;3.20;0.40;;;1.80;99.90;;;;;;5066776;28;20488;-77
2022/01/21 04:03:09;;;;;;;7.20;2.20;;;1.80;99.90;;;;;;5059741;28;20465;-77
2022/01/21 04:05:36;;;;;;;2.88;0.60;;;1.80;99.90;;;;;;5065009;28;20035;-77
2022/01/21 04:08:03;;;;;;;2.03;0.60;;;1.80;99.90;;;;;;5067847;28;20225;-77
2022/01/21 04:10:29;;;;;;;1.25;0.40;;;1.60;99.90;;;;;;5076970;28;20072;-77
2022/01/21 04:12:55;;;;;;;4.10;0.80;;;1.60;99.90;;;;;;5035882;28;20510;-77
2022/01/21 04:15:22;;;;;;;6.70;1.20;;;1.60;99.90;;;;;;5051099;28;20047;-77
2022/01/21 04:17:47;;;;;;;6.05;1.08;;;1.80;99.90;;;;;;5052647;28;20115;-77
2022/01/21 04:20:14;;;;;;;9.93;0.90;;;1.80;99.90;;;;;;5033893;28;20856;-77
2022/01/21 04:22:40;;;;;;;4.22;0.90;;;1.80;99.90;;;;;;5061586;28;20040;-77
2022/01/21 04:25:06;;;;;;;3.35;0.70;;;1.70;99.90;;;;;;5051473;28;20033;-77
2022/01/21 04:27:32;;;;;;;4.65;0.70;;;1.70;99.90;;;;;;5023983;28;20050;-76
2022/01/21 04:29:58;;;;;;;4.38;0.88;;;1.70;99.90;;;;;;5048884;28;20044;-77
2022/01/21 04:32:24;;;;;;;7.60;0.95;;;1.60;99.90;;;;;;5064412;28;20104;-77
2022/01/21 04:34:50;;;;;;;4.30;0.85;;;1.70;99.90;;;;;;5065737;28;20096;-76
2022/01/21 04:37:17;;;;;;;8.30;0.90;;;1.70;99.90;;;;;;5051351;28;20048;-77
2022/01/21 04:40:08;;;;;;;;;;;1.70;99.90;;;;;;5054005;28;20464;-77
2022/01/21 04:47:56;;;;;;;9.00;1.42;;;1.90;99.90;;;;;;5063331;28;20047;-77
2022/01/21 04:50:24;;;;;;;9.60;1.23;;;1.90;99.90;;;;;;5043616;28;20052;-77
2022/01/21 04:52:50;;;;;;;9.15;1.20;;;1.90;99.90;;;;;;5046493;28;20293;-76
2022/01/21 04:55:16;;;;;;;5.63;1.10;;;2.00;99.90;;;;;;5069887;28;20044;-76
2022/01/21 04:57:42;;;;;;;6.65;0.98;;;2.00;99.90;;;;;;5053267;28;22014;-77
2022/01/21 05:00:09;;;;;;;5.38;1.25;;;2.10;99.90;;;;;;5082306;28;20448;-77
2022/01/21 05:02:35;;;;;;;7.07;0.93;;;2.20;99.90;;;;;;5096447;28;20052;-76
2022/01/21 05:05:03;;;;;;;6.80;1.27;;;2.40;99.90;;;;;;5065663;28;20044;-76
2022/01/21 05:07:34;;;;;;;6.70;0.82;;;2.60;99.90;;;;;;5056983;28;20029;-76
2022/01/21 05:09:59;;;;;;;5.45;0.90;;;2.60;99.90;;;;;;5073571;28;20032;-76
2022/01/21 05:12:27;;;;;;;9.38;1.63;;;2.70;99.90;;;;;;5056160;28;20557;-76
2022/01/21 05:17:22;;;;;;;5.50;1.10;;;2.90;99.90;;;;;;5068105;28;20426;-76
2022/01/21 05:19:48;;;;;;;7.53;1.30;;;3.00;99.90;;;;;;5066293;28;20132;-76
2022/01/21 05:22:14;;;;;;;8.65;1.90;;;3.10;99.90;;;;;;5095328;28;20115;-76
2022/01/21 05:24:40;;;;;;;8.05;1.33;;;3.10;99.90;;;;;;5068589;28;20044;-77
2022/01/21 05:27:06;;;;;;;5.88;1.00;;;3.00;99.90;;;;;;5050569;28;20036;-76
2022/01/21 05:29:33;;;;;;;9.60;1.48;;;2.90;99.90;;;;;;5070261;28;20099;-77
2022/01/21 05:32:00;;;;;;;7.07;1.58;;;2.90;99.90;;;;;;5069529;28;20128;-76
2022/01/21 05:34:26;;;;;;;9.02;1.30;;;2.90;99.90;;;;;;5071554;28;20388;-77
2022/01/21 05:36:52;;;;;;;9.70;1.10;;;2.90;99.90;;;;;;5038575;28;20036;-77
2022/01/21 05:39:19;;;;;;;9.82;1.17;;;2.80;99.90;;;;;;5051418;28;20125;-78
2022/01/21 05:41:48;;;;;;;7.10;0.95;;;2.80;99.90;;;;;;5081643;28;20033;-78
2022/01/21 05:46:57;;;;;;;11.38;1.30;;;2.90;99.90;;;;;;5068206;28;20057;-78
2022/01/21 05:49:24;;;;;;;10.93;1.58;;;3.00;99.90;;;;;;5067291;28;20025;-78
2022/01/21 05:51:52;;;;;;;10.52;1.65;;;3.00;99.90;;;;;;5063057;28;20052;-78
2022/01/21 05:54:24;;;;;;;6.50;1.42;;;3.10;99.90;;;;;;5062615;28;20127;-78
2022/01/21 05:56:50;;;;;;;8.48;2.20;;;3.20;99.90;;;;;;5094656;28;20052;-78
2022/01/21 05:59:16;;;;;;;8.52;1.55;;;3.20;99.90;;;;;;5068510;28;20041;-77
2022/01/21 06:01:42;;;;;;;6.50;1.42;;;3.30;99.90;;;;;;5064948;28;20047;-78
2022/01/21 06:04:08;;;;;;;5.97;1.20;;;3.40;99.90;;;;;;5059554;28;20120;-79
2022/01/21 06:06:34;;;;;;;5.50;1.15;;;3.40;99.90;;;;;;5078582;28;20183;-78
2022/01/21 06:09:00;;;;;;;8.30;1.30;;;3.30;99.90;;;;;;5049977;28;20048;-79
2022/01/21 06:11:26;;;;;;;5.32;1.08;;;3.30;99.90;;;;;;5045088;28;20433;-78
2022/01/21 06:13:52;;;;;;;10.00;1.20;;;3.30;99.90;;;;;;5036128;28;20118;-78
2022/01/21 06:16:18;;;;;;;7.47;1.00;;;3.20;99.90;;;;;;5031272;28;20086;-78
2022/01/21 06:18:45;;;;;;;;;;;3.10;99.90;;;;;;5079612;28;20117;-76
2022/01/21 06:21:11;;;;;;;8.45;1.60;;;3.20;99.90;;;;;;5083517;28;19920;-78
2022/01/21 06:23:37;;;;;;;;;;;3.10;99.90;;;;;;5047484;28;20036;-77
2022/01/21 06:26:03;;;;;;;5.65;1.23;;;3.20;99.90;;;;;;5052519;28;19916;-77
2022/01/21 06:28:29;;;;;;;8.05;1.65;;;3.10;99.90;;;;;;5061406;28;20036;-77
2022/01/21 06:30:54;;;;;;;9.00;1.33;;;3.10;99.90;;;;;;5040711;28;20438;-77
2022/01/21 06:33:20;;;;;;;7.47;1.05;;;3.10;99.90;;;;;;5046378;28;20052;-77
2022/01/21 06:35:47;;;;;;;11.02;1.35;;;3.10;99.90;;;;;;5049794;28;20032;-77
2022/01/21 06:38:13;;;;;;;4.38;0.85;;;3.10;99.90;;;;;;5060658;28;20415;-77
2022/01/21 06:40:39;;;;;;;8.30;1.35;;;2.90;99.90;;;;;;5061487;28;20036;-77
2022/01/21 06:43:05;;;;;;;9.85;1.40;;;2.90;99.90;;;;;;5062732;28;20040;-77
2022/01/21 06:45:30;;;;;;;7.05;1.20;;;2.90;99.90;;;;;;5060242;28;20037;-76
2022/01/21 06:47:58;;;;;;;6.40;1.27;;;2.80;99.90;;;;;;5044046;28;20043;-77
2022/01/21 06:50:25;;;;;;;7.95;1.33;;;2.80;99.90;;;;;;5040034;28;20052;-77
2022/01/21 06:52:51;;;;;;;5.88;1.20;;;2.70;99.90;;;;;;5055013;28;20060;-77
2022/01/21 06:55:17;;;;;;;6.70;1.30;;;2.70;99.90;;;;;;5047549;28;20032;-77
2022/01/21 06:57:42;;;;;;;6.90;1.20;;;2.60;99.90;;;;;;5056085;28;20033;-77
2022/01/21 07:00:13;;;;;;;3.80;1.23;;;2.50;99.90;;;;;;5059374;28;20082;-78
2022/01/21 07:02:39;;;;;;;4.85;1.10;;;2.50;99.90;;;;;;5040995;28;20048;-77
2022/01/21 07:05:07;;;;;;;2.80;0.73;;;2.50;99.90;;;;;;5047402;28;20037;-77
2022/01/21 07:07:33;;;;;;;2.17;0.40;;;2.30;99.90;;;;;;5045677;28;20048;-77
2022/01/21 07:10:00;;;;;;;2.83;0.90;;;2.20;99.90;;;;;;5068953;28;20047;-77
2022/01/21 07:12:26;;;;;;;2.40;0.60;;;1.90;99.90;;;;;;5068767;28;20064;-77
2022/01/21 07:14:52;;;;;;;2.30;0.77;;;2.00;99.90;;;;;;5067514;28;20039;-76
2022/01/21 07:17:18;;;;;;;3.00;0.63;;;1.80;99.90;;;;;;5045492;28;20116;-72
2022/01/21 07:19:44;;;;;;;3.80;0.80;;;1.70;99.90;;;;;;5045464;28;20040;-73
2022/01/21 07:22:09;;;;;;;4.00;0.75;;;1.80;99.90;;;;;;5035805;28;20476;-73
2022/01/21 07:24:35;;;;;;;6.05;1.35;;;1.70;99.90;;;;;;5052082;28;20424;-73
2022/01/21 07:27:01;;;;;;;5.77;1.30;;;1.90;99.90;;;;;;5063296;28;20045;-74
2022/01/21 07:29:26;;;;;;;9.43;1.50;;;1.90;99.90;;;;;;5061251;28;20044;-74
2022/01/21 07:31:54;;;;;;;6.25;1.60;;;1.80;99.90;;;;;;5043006;28;20041;-74
2022/01/21 07:34:25;;;;;;;8.32;1.60;;;1.90;99.90;;;;;;5046651;28;20044;-74
2022/01/21 07:36:52;;;;;;;6.82;1.55;;;2.00;99.90;;;;;;5058792;28;20186;-73
2022/01/21 07:39:18;;;;;;;9.00;1.77;;;2.00;99.90;;;;;;5049000;28;20040;-75
2022/01/21 07:41:43;;;;;;;7.10;1.70;;;1.90;99.90;;;;;;5064505;28;20046;-74
2022/01/21 07:44:09;;;;;;;9.05;1.50;;;2.00;99.90;;;;;;5054253;28;20119;-74
2022/01/21 07:46:36;;;;;;;8.10;1.70;;;2.10;99.90;;;;;;5037111;28;20040;-74
2022/01/21 07:49:02;;;;;;;4.60;1.40;;;2.00;99.90;;;;;;5059696;28;20036;-74
2022/01/21 07:51:28;;;;;;;3.45;1.23;;;2.00;99.90;;;;;;5043354;28;20209;-74
2022/01/21 07:53:53;;;;;;;5.28;0.90;;;2.10;99.90;;;;;;5043831;28;20506;-74
2022/01/21 07:56:19;;;;;;;3.97;0.85;;;1.90;99.90;;;;;;5063258;28;20041;-73
2022/01/21 07:58:45;;;;;;;7.20;1.45;;;1.90;99.90;;;;;;5038465;28;20052;-76
2022/01/21 08:01:11;;;;;;;8.07;1.20;;;1.90;99.90;;;;;;5041609;28;20041;-75
2022/01/21 08:03:37;;;;;;;12.07;2.30;;;2.10;99.90;;;;;;5060227;28;20044;-74
2022/01/21 08:06:03;;;;;;;5.35;1.05;;;2.10;99.90;;;;;;5039570;28;20511;-74
2022/01/21 08:08:30;;;;;;;7.20;1.45;;;2.10;99.90;;;;;;5055790;28;20079;-75
2022/01/21 08:10:56;;;;;;;7.45;1.27;;;2.10;99.90;;;;;;5042448;28;20044;-75
2022/01/21 08:13:22;;;;;;;6.93;1.35;;;2.20;99.90;;;;;;5044463;28;20125;-74
2022/01/21 08:15:48;;;;;;;11.07;1.75;;;2.20;99.90;;;;;;5053747;28;20912;-74
2022/01/21 08:18:15;;;;;;;9.07;1.40;;;2.20;99.90;;;;;;5069240;28;20045;-74
2022/01/21 08:20:44;;;;;;;4.93;1.17;;;2.20;99.90;;;;;;5060524;28;20064;-74
2022/01/21 08:23:12;;;;;;;3.38;1.05;;;2.30;99.90;;;;;;5057834;28;20045;-74
2022/01/21 08:25:38;;;;;;;8.63;1.73;;;2.20;99.90;;;;;;5039161;28;20148;-74
2022/01/21 08:28:04;;;;;;;7.07;1.70;;;2.20;99.90;;;;;;5056825;28;20069;-73
2022/01/21 08:30:30;;;;;;;9.48;1.83;;;2.40;99.90;;;;;;5061091;28;20496;-73
2022/01/21 08:32:55;;;;;;;7.80;1.48;;;2.40;99.90;;;;;;5061882;28;20041;-73
2022/01/21 08:35:21;;;;;;;8.95;1.50;;;2.60;99.90;;;;;;5055231;28;20041;-73
2022/01/21 08:37:47;;;;;;;8.27;1.40;;;2.60;99.90;;;;;;5046261;28;20037;-73
2022/01/21 08:40:13;;;;;;;8.38;1.33;;;2.70;99.90;;;;;;5065701;28;20116;-73
2022/01/21 08:42:39;;;;;;;;;;;2.90;99.90;;;;;;5058992;28;20467;-73
2022/01/21 08:45:06;;;;;;;11.65;1.70;;;3.00;99.90;;;;;;5060645;28;19920;-73
2022/01/21 08:47:31;;;;;;;;;;;3.30;99.90;;;;;;5066884;28;20039;-74
2022/01/21 08:50:00;;;;;;;8.82;1.50;;;3.40;99.90;;;;;;5051464;28;20271;-73
2022/01/21 08:52:29;;;;;;;6.75;1.60;;;3.50;99.90;;;;;;5061684;28;20060;-74
2022/01/21 08:54:54;;;;;;;9.38;1.70;;;3.60;99.90;;;;;;5092368;28;20044;-73
2022/01/21 08:57:20;;;;;;;14.65;2.33;;;3.60;99.90;;;;;;5074990;28;20407;-74
2022/01/21 08:59:48;;;;;;;8.90;1.75;;;3.70;99.90;;;;;;5045614;28;20106;-74
2022/01/21 09:02:15;;;;;;;10.00;2.22;;;3.70;99.90;;;;;;5088445;28;20045;-72
2022/01/21 09:04:40;;;;;;;11.35;2.00;;;3.80;99.90;;;;;;5063954;28;20391;-73
2022/01/21 09:07:06;;;;;;;18.50;2.95;;;3.80;99.90;;;;;;5060037;28;20040;-73
2022/01/21 09:09:32;;;;;;;13.98;2.20;;;3.90;99.90;;;;;;5060289;28;20052;-73
2022/01/21 09:12:00;;;;;;;6.22;1.70;;;3.90;99.90;;;;;;5058888;28;20041;-74
2022/01/21 09:14:31;;;;;;;12.60;2.00;;;4.00;99.90;;;;;;5051043;28;20044;-74
2022/01/21 09:16:58;;;;;;;13.90;3.15;;;4.00;99.90;;;;;;5061035;28;20051;-74
2022/01/21 09:19:25;;;;;;;11.68;2.15;;;3.90;99.90;;;;;;5059212;28;20049;-76
2022/01/21 09:21:52;;;;;;;18.30;2.55;;;4.00;99.90;;;;;;5088876;28;20145;-75
2022/01/21 09:24:20;;;;;;;20.52;2.65;;;4.00;99.90;;;;;;5062253;28;20174;-74
2022/01/21 09:26:46;;;;;;;22.55;3.15;;;4.00;99.90;;;;;;5059140;28;20045;-75
2022/01/21 09:29:12;;;;;;;18.98;2.22;;;4.00;99.90;;;;;;5046279;28;20090;-73
2022/01/21 09:31:38;;;;;;;12.15;2.30;;;4.10;99.90;;;;;;5061891;28;20037;-73
2022/01/21 09:34:05;;;;;;;16.48;2.47;;;4.10;99.90;;;;;;5053123;28;20040;-73
2022/01/21 09:36:32;;;;;;;14.98;2.17;;;4.10;99.90;;;;;;5095699;28;20492;-73
2022/01/21 09:38:58;;;;;;;13.10;2.00;;;4.10;99.90;;;;;;5062310;28;20041;-72
2022/01/21 09:41:25;;;;;;;11.27;2.08;;;4.20;99.90;;;;;;5064847;28;20110;-72
2022/01/21 09:43:53;;;;;;;14.98;2.30;;;4.30;99.90;;;;;;5043780;28;20123;-73
2022/01/21 09:46:36;;;;;;;17.85;3.70;;;4.30;99.90;;;;;;5043386;28;20112;-72
2022/01/21 09:49:27;;;;;;;14.10;2.50;;;4.40;99.90;;;;;;5056399;28;20084;-72
2022/01/21 09:52:14;;;;;;;19.77;2.85;;;4.50;99.90;;;;;;5054146;28;20061;-73
2022/01/21 09:54:48;;;;;;;12.13;2.28;;;4.60;99.90;;;;;;5088576;28;20499;-72
2022/01/21 09:57:32;;;;;;;10.73;2.15;;;4.60;99.90;;;;;;5090701;28;20041;-72
2022/01/21 10:00:00;;;;;;;10.05;1.80;;;4.70;99.90;;;;;;5061237;28;20052;-72
2022/01/21 10:02:28;;;;;;;7.05;1.80;;;4.80;99.90;;;;;;5059138;28;20150;-72
2022/01/21 10:04:56;;;;;;;9.93;1.92;;;4.90;99.90;;;;;;5060069;28;20071;-72
2022/01/21 10:07:23;;;;;;;9.57;1.90;;;5.00;99.90;;;;;;5042949;28;20464;-72
2022/01/21 10:09:51;;;;;;;9.43;2.05;;;5.00;99.90;;;;;;5060592;28;20041;-72
2022/01/21 10:12:17;;;;;;;14.25;2.30;;;5.20;99.90;;;;;;5064983;28;20120;-72
2022/01/21 10:14:44;;;;;;;10.15;1.60;;;5.30;99.90;;;;;;5064880;28;20113;-72
2022/01/21 10:17:10;;;;;;;9.02;1.98;;;5.40;99.90;;;;;;5057628;28;20043;-72
2022/01/21 10:19:39;;;;;;;11.23;1.95;;;5.50;99.90;;;;;;5095962;28;20036;-72
2022/01/21 10:22:16;;;;;;;9.40;1.98;;;5.60;99.90;;;;;;5064681;28;20086;-72
2022/01/21 10:25:01;;;;;;;8.98;1.63;;;5.70;99.90;;;;;;5058318;28;20107;-72
2022/01/21 10:27:32;;;;;;;10.68;2.00;;;5.70;99.90;;;;;;5062543;28;20040;-73
2022/01/21 10:30:00;;;;;;;8.68;1.75;;;5.70;99.90;;;;;;5095343;28;20040;-72
2022/01/21 10:32:38;;;;;;;7.43;1.92;;;5.80;99.90;;;;;;5041264;28;20483;-72
2022/01/21 10:35:26;;;;;;;11.85;2.38;;;5.80;99.90;;;;;;5059113;28;20052;-72
2022/01/21 10:37:52;;;;;;;14.50;2.25;;;5.90;99.90;;;;;;5057837;28;20041;-72
2022/01/21 10:40:21;;;;;;;9.18;2.08;;;5.80;99.90;;;;;;5053596;28;20131;-72
2022/01/21 10:42:48;;;;;;;13.27;2.65;;;5.90;99.90;;;;;;5058982;28;20052;-72
2022/01/21 10:45:14;;;;;;;8.95;2.28;;;5.80;99.90;;;;;;5060303;28;20090;-72
2022/01/21 10:47:47;;;;;;;15.82;1.90;;;5.80;99.90;;;;;;5044809;28;20033;-72
2022/01/21 10:50:21;;;;;;;13.00;2.13;;;5.80;99.90;;;;;;5041123;28;20041;-72
2022/01/21 10:52:52;;;;;;;12.23;2.00;;;5.90;99.90;;;;;;5088532;28;20044;-73
2022/01/21 10:55:37;;;;;;;10.13;1.67;;;6.10;99.90;;;;;;5046701;28;20037;-73
2022/01/21 10:58:09;;;;;;;10.18;2.00;;;6.20;99.90;;;;;;5072431;28;20533;-73
2022/01/21 11:00:36;;;;;;;15.57;2.10;;;6.30;99.90;;;;;;5061746;28;20074;-74
2022/01/21 11:03:15;;;;;;;16.50;1.80;;;6.40;99.90;;;;;;5058088;28;20396;-74
2022/01/21 11:05:45;;;;;;;11.63;1.75;;;6.60;99.90;;;;;;5057355;28;20107;-74
2022/01/21 11:08:13;;;;;;;10.35;1.75;;;6.60;99.90;;;;;;5086530;28;20055;-74
2022/01/21 11:10:46;;;;;;;16.02;2.00;;;6.70;99.90;;;;;;5047887;28;20048;-75
2022/01/21 11:13:11;;;;;;;13.00;1.90;;;6.70;99.90;;;;;;5087593;28;20191;-74
2022/01/21 11:15:46;;;;;;;11.27;2.23;;;6.70;99.90;;;;;;5057239;28;20250;-74
2022/01/21 11:18:16;;;;;;;13.55;1.90;;;6.70;99.90;;;;;;5058695;28;20334;-74
2022/01/21 11:20:45;;;;;;;11.35;2.08;;;6.80;99.90;;;;;;5062115;28;20048;-74
2022/01/21 11:23:12;;;;;;;15.98;2.35;;;6.80;99.90;;;;;;5038932;28;20106;-73
2022/01/21 11:25:51;;;;;;;;;;;6.80;99.90;;;;;;5061184;28;20518;-74
2022/01/21 11:28:22;;;;;;;14.95;2.83;;;6.80;99.90;;;;;;5057145;28;19925;-74
2022/01/21 11:30:50;;;;;;;12.75;1.98;;;7.00;99.90;;;;;;5061891;28;20059;-74
2022/01/21 11:33:16;;;;;;;9.70;2.00;;;6.90;99.90;;;;;;5054585;28;20148;-74
2022/01/21 11:35:42;;;;;;;12.63;2.00;;;6.90;99.90;;;;;;5064405;28;20110;-74
2022/01/21 11:38:11;;;;;;;11.57;1.83;;;7.10;99.90;;;;;;5038154;28;20523;-74
2022/01/21 11:40:37;;;;;;;8.13;1.45;;;7.10;99.90;;;;;;5053064;28;20044;-74
2022/01/21 11:43:05;;;;;;;13.70;2.25;;;7.00;99.90;;;;;;5053631;28;20384;-75
2022/01/21 11:45:53;;;;;;;9.02;1.48;;;7.00;99.90;;;;;;5037809;28;20052;-73
2022/01/21 11:51:00;;;;;;;14.25;2.50;;;7.00;99.90;;;;;;5061677;28;20063;-74
2022/01/21 11:54:12;;;;;;;11.82;2.45;;;7.00;99.90;;;;;;5056706;28;20091;-74
2022/01/21 11:56:44;;;;;;;11.10;1.55;;;7.00;99.90;;;;;;5044286;28;20096;-73
2022/01/21 11:59:59;;;;;;;18.63;2.42;;;7.00;99.90;;;;;;5045473;28;20085;-73
2022/01/21 12:02:28;;;;;;;14.25;2.42;;;7.00;99.90;;;;;;5081822;28;20051;-73
2022/01/21 12:05:06;;;;;;;10.68;1.67;;;6.90;99.90;;;;;;5048333;28;20165;-74
2022/01/21 12:07:36;;;;;;;9.88;2.20;;;7.00;99.90;;;;;;5083208;28;20048;-73
2022/01/21 12:10:08;;;;;;;9.45;2.30;;;7.00;99.90;;;;;;5053976;28;20045;-73
2022/01/21 12:15:46;;;;;;;11.15;1.42;;;7.00;99.90;;;;;;5058288;28;20097;-74
2022/01/21 12:20:52;;;;;;;7.22;1.50;;;7.20;99.90;;;;;;5052722;28;20490;-73
2022/01/21 12:23:21;;;;;;;10.43;1.55;;;7.10;99.90;;;;;;5041369;28;20048;-74
2022/01/21 12:26:12;;;;;;;10.18;1.67;;;7.20;99.90;;;;;;5091530;28;20056;-75
2022/01/21 12:28:59;;;;;;;7.65;1.90;;;7.20;99.90;;;;;;5061315;28;20072;-74
2022/01/21 12:31:58;;;;;;;8.13;1.70;;;7.10;99.90;;;;;;5070826;28;20186;-74
2022/01/21 12:34:24;;;;;;;13.57;1.77;;;7.10;99.90;;;;;;5057338;28;20052;-73
2022/01/21 12:36:53;;;;;;;11.88;1.83;;;7.20;99.90;;;;;;5057180;28;20041;-73
2022/01/21 12:39:40;;;;;;;13.20;2.13;;;7.10;99.90;;;;;;5054463;28;20055;-73
2022/01/21 12:42:21;;;;;;;16.50;1.90;;;7.10;99.90;;;;;;5055275;28;20052;-73
2022/01/21 12:44:48;;;;;;;9.43;2.05;;;7.10;99.90;;;;;;5082601;28;20383;-73
2022/01/21 12:47:36;;;;;;;16.70;2.17;;;7.10;99.90;;;;;;5056320;28;20045;-73
2022/01/21 12:50:35;;;;;;;;;;;7.10;99.90;;;;;;5091306;28;20060;-73
2022/01/21 12:58:17;;;;;;;;;;;7.10;99.90;;;;;;5054326;28;20396;-73
2022/01/21 13:00:44;;;;;;;10.23;2.20;;;7.10;99.90;;;;;;5057900;28;19920;-73
2022/01/21 13:03:23;;;;;;;10.13;2.03;;;7.10;99.90;;;;;;5083064;28;20094;-73
2022/01/21 13:06:30;;;;;;;13.70;2.13;;;7.10;99.90;;;;;;5057286;28;20041;-73
2022/01/21 13:09:07;;;;;;;10.88;1.88;;;7.10;99.90;;;;;;5056876;28;20056;-73
2022/01/21 13:11:35;;;;;;;12.20;2.40;;;7.10;99.90;;;;;;5060790;28;20761;-73
2022/01/21 13:17:04;;;;;;;13.95;2.13;;;7.00;99.90;;;;;;5058488;28;20049;-73
2022/01/21 13:19:42;;;;;;;15.80;2.08;;;7.00;99.90;;;;;;5061446;28;20049;-73
2022/01/21 13:22:19;;;;;;;13.13;1.98;;;7.00;99.90;;;;;;5063520;28;20119;-74
2022/01/21 13:25:36;;;;;;;;;;;7.00;99.90;;;;;;5074887;28;20037;-74
2022/01/21 13:27:50;;;;;;;17.55;2.63;;;7.00;99.90;;;;;;5065074;28;19920;-73
2022/01/21 13:30:19;;;;;;;14.07;2.03;;;7.00;99.90;;;;;;5062164;28;20114;-72
2022/01/21 13:32:45;;;;;;;14.95;1.92;;;6.90;99.90;;;;;;5094032;28;20173;-73
2022/01/21 13:35:15;;;;;;;17.50;2.47;;;6.90;99.90;;;;;;5073176;28;20574;-73
2022/01/21 13:37:58;;;;;;;14.38;2.47;;;6.90;99.90;;;;;;5043680;28;20044;-73
2022/01/21 13:40:24;;;;;;;13.65;2.05;;;6.90;99.90;;;;;;5063948;28;20056;-73
2022/01/21 13:42:50;;;;;;;8.40;1.90;;;6.80;99.90;;;;;;5041112;28;20029;-72
2022/01/21 13:45:16;;;;;;;13.15;2.40;;;6.80;99.90;;;;;;5090186;28;20041;-73
2022/01/21 13:47:44;;;;;;;12.48;1.98;;;6.80;99.90;;;;;;5056359;28;20037;-73
2022/01/21 13:50:18;;;;;;;16.13;2.30;;;6.90;99.90;;;;;;5053962;28;20480;-73
2022/01/21 13:52:48;;;;;;;11.40;2.08;;;6.90;99.90;;;;;;5063308;28;20037;-72
2022/01/21 13:55:28;;;;;;;15.75;2.30;;;6.90;99.90;;;;;;5068347;28;20078;-72
2022/01/21 13:57:55;;;;;;;13.05;2.38;;;7.00;99.90;;;;;;5062670;28;20150;-72
2022/01/21 14:00:45;;;;;;;14.82;2.17;;;7.00;99.90;;;;;;5038876;28;20040;-72
2022/01/21 14:03:22;;;;;;;12.88;2.10;;;7.00;99.90;;;;;;5075251;28;20133;-71
2022/01/21 14:05:58;;;;;;;11.98;1.85;;;7.00;99.90;;;;;;5059645;28;20480;-72
2022/01/21 14:08:27;;;;;;;12.52;2.72;;;7.10;99.90;;;;;;5065748;28;20125;-71
2022/01/21 14:10:54;;;;;;;11.82;2.30;;;7.00;99.90;;;;;;5061488;28;20163;-71
2022/01/21 14:13:20;;;;;;;13.13;2.10;;;7.10;99.90;;;;;;5065663;28;20090;-72